createdAt,value
2022-11-08T00:01:52.909Z,11.20
2022-11-08T00:04:19.920Z,11.10
2022-11-08T00:07:05.114Z,11.10
2022-11-08T00:09:50.575Z,11.10
2022-11-08T00:12:35.800Z,11.10
2022-11-08T00:15:02.637Z,11.10
2022-11-08T00:17:29.375Z,11.10
2022-11-08T00:19:56.010Z,11.00
2022-11-08T00:22:22.614Z,11.00
2022-11-08T00:24:49.164Z,11.10
2022-11-08T00:27:16.435Z,11.10
2022-11-08T00:29:43.062Z,11.10
2022-11-08T00:32:11.658Z,11.10
2022-11-08T00:34:38.653Z,11.20
2022-11-08T00:37:05.209Z,11.20
2022-11-08T00:39:31.758Z,11.20
2022-11-08T00:41:58.399Z,11.20
2022-11-08T00:44:24.999Z,11.20
2022-11-08T00:46:51.528Z,11.30
2022-11-08T00:49:18.067Z,11.30
2022-11-08T00:51:44.645Z,11.40
2022-11-08T00:54:12.733Z,11.40
2022-11-08T00:56:39.268Z,11.50
2022-11-08T00:59:05.820Z,11.50
2022-11-08T01:01:32.482Z,11.50
2022-11-08T01:03:59.107Z,11.50
2022-11-08T01:06:25.678Z,11.60
2022-11-08T01:08:52.224Z,11.50
2022-11-08T01:11:19.683Z,11.60
2022-11-08T01:13:46.433Z,11.60
2022-11-08T01:16:13.906Z,11.60
2022-11-08T01:18:40.971Z,11.60
2022-11-08T01:21:07.579Z,11.60
2022-11-08T01:23:34.149Z,11.60
2022-11-08T01:26:06.391Z,11.50
2022-11-08T01:28:33.299Z,11.60
2022-11-08T01:31:03.488Z,11.50
2022-11-08T01:33:30.031Z,11.50
2022-11-08T01:35:56.580Z,11.40
2022-11-08T01:38:23.133Z,11.30
2022-11-08T01:40:49.658Z,11.20
2022-11-08T01:43:25.472Z,11.10
2022-11-08T01:46:10.536Z,11.00
2022-11-08T01:48:37.739Z,11.00
2022-11-08T01:51:04.362Z,10.90
2022-11-08T01:53:30.924Z,11.00
2022-11-08T01:55:57.463Z,10.90
2022-11-08T01:58:25.126Z,10.80
2022-11-08T02:00:51.694Z,10.80
2022-11-08T02:03:18.630Z,10.80
2022-11-08T02:05:45.680Z,10.80
2022-11-08T02:08:15.024Z,10.70
2022-11-08T02:10:43.241Z,10.70
2022-11-08T02:13:14.748Z,10.70
2022-11-08T02:15:42.204Z,10.70
2022-11-08T02:18:08.765Z,10.70
2022-11-08T02:20:35.303Z,10.70
2022-11-08T02:23:17.200Z,10.60
2022-11-08T02:25:43.750Z,10.60
2022-11-08T02:28:10.298Z,10.60
2022-11-08T02:30:37.374Z,10.60
2022-11-08T02:33:16.746Z,10.50
2022-11-08T02:35:44.596Z,10.60
2022-11-08T02:38:11.146Z,10.50
2022-11-08T02:40:53.632Z,10.60
2022-11-08T02:43:20.293Z,10.50
2022-11-08T02:45:46.903Z,10.50
2022-11-08T02:48:15.512Z,10.40
2022-11-08T02:50:42.326Z,10.40
2022-11-08T02:53:08.867Z,10.40
2022-11-08T02:55:35.492Z,10.40
2022-11-08T02:58:02.140Z,10.40
2022-11-08T03:00:29.251Z,10.40
2022-11-08T03:02:56.046Z,10.40
2022-11-08T03:05:22.689Z,10.30
2022-11-08T03:07:49.229Z,10.30
2022-11-08T03:10:15.914Z,10.30
2022-11-08T03:12:42.993Z,10.30
2022-11-08T03:15:09.983Z,10.30
2022-11-08T03:17:36.520Z,10.30
2022-11-08T03:20:03.321Z,10.20
2022-11-08T03:22:29.855Z,10.20
2022-11-08T03:24:56.424Z,10.20
2022-11-08T03:27:22.974Z,10.30
2022-11-08T03:29:49.983Z,10.30
2022-11-08T03:32:16.528Z,10.40
2022-11-08T03:34:43.088Z,10.40
2022-11-08T03:37:09.632Z,10.40
2022-11-08T03:39:36.214Z,10.50
2022-11-08T03:42:06.335Z,10.50
2022-11-08T03:44:32.897Z,10.60
2022-11-08T03:46:59.957Z,10.60
2022-11-08T03:49:26.791Z,10.60
2022-11-08T03:51:53.769Z,10.60
2022-11-08T03:54:20.320Z,10.70
2022-11-08T03:56:46.865Z,10.60
2022-11-08T03:59:13.454Z,10.60
2022-11-08T04:01:40.202Z,10.70
2022-11-08T04:04:06.887Z,10.60
2022-11-08T04:06:33.421Z,10.70
2022-11-08T04:09:00.012Z,10.70
2022-11-08T04:11:45.335Z,10.60
2022-11-08T04:14:30.350Z,10.60
2022-11-08T04:16:56.913Z,10.70
2022-11-08T04:19:41.975Z,10.70
2022-11-08T04:22:08.512Z,10.70
2022-11-08T04:24:35.068Z,10.80
2022-11-08T04:27:02.664Z,10.70
2022-11-08T04:29:29.348Z,10.70
2022-11-08T04:31:55.879Z,10.60
2022-11-08T04:34:22.545Z,10.50
2022-11-08T04:36:49.104Z,10.40
2022-11-08T04:39:15.715Z,10.20
2022-11-08T04:41:42.287Z,10.10
2022-11-08T04:44:09.118Z,10.00
2022-11-08T04:46:35.651Z,9.90
2022-11-08T04:49:02.229Z,9.80
2022-11-08T04:51:29.763Z,9.70
2022-11-08T04:53:57.487Z,9.60
2022-11-08T04:56:24.169Z,9.60
2022-11-08T04:58:51.581Z,9.50
2022-11-08T05:01:19.310Z,9.50
2022-11-08T05:03:46.351Z,9.40
2022-11-08T05:06:13.770Z,9.40
2022-11-08T05:08:40.424Z,9.30
2022-11-08T05:11:10.033Z,9.30
2022-11-08T05:13:36.582Z,9.20
2022-11-08T05:16:04.785Z,9.10
2022-11-08T05:18:31.362Z,9.10
2022-11-08T05:21:16.728Z,9.10
2022-11-08T05:23:43.515Z,9.00
2022-11-08T05:26:10.041Z,9.00
2022-11-08T05:28:36.629Z,9.00
2022-11-08T05:31:04.353Z,9.00
2022-11-08T05:33:30.887Z,9.00
2022-11-08T05:36:04.748Z,9.10
2022-11-08T05:38:32.456Z,9.00
2022-11-08T05:41:03.876Z,8.90
2022-11-08T05:43:30.413Z,8.90
2022-11-08T05:45:56.961Z,8.80
2022-11-08T05:48:23.492Z,8.80
2022-11-08T05:50:50.066Z,8.80
2022-11-08T05:53:16.928Z,8.80
2022-11-08T05:55:43.692Z,8.80
2022-11-08T05:58:10.269Z,8.70
2022-11-08T06:00:36.823Z,8.70
2022-11-08T06:03:03.942Z,8.70
2022-11-08T06:05:30.572Z,8.70
2022-11-08T06:07:57.104Z,9.80
2022-11-08T06:10:23.697Z,11.10
2022-11-08T06:12:50.297Z,11.50
2022-11-08T06:15:16.886Z,10.70
2022-11-08T06:17:43.424Z,10.10
2022-11-08T06:20:12.907Z,9.70
2022-11-08T06:22:39.527Z,9.40
2022-11-08T06:25:06.188Z,9.20
2022-11-08T06:27:32.736Z,9.10
2022-11-08T06:29:59.316Z,9.00
2022-11-08T06:32:25.850Z,9.00
2022-11-08T06:34:52.419Z,9.00
2022-11-08T06:37:19.012Z,8.90
2022-11-08T06:39:45.691Z,8.90
2022-11-08T06:42:12.286Z,8.80
2022-11-08T06:44:38.846Z,8.80
2022-11-08T06:47:05.423Z,8.80
2022-11-08T06:49:31.977Z,8.80
2022-11-08T06:51:58.501Z,8.90
2022-11-08T06:54:26.884Z,8.90
2022-11-08T06:56:55.712Z,9.00
2022-11-08T06:59:23.081Z,9.00
2022-11-08T07:01:49.723Z,9.00
2022-11-08T07:04:16.391Z,9.00
2022-11-08T07:06:42.967Z,9.00
2022-11-08T07:09:09.519Z,9.00
2022-11-08T07:11:36.056Z,9.10
2022-11-08T07:14:02.616Z,9.20
2022-11-08T07:16:29.763Z,9.20
2022-11-08T07:18:56.344Z,9.30
2022-11-08T07:21:22.913Z,9.30
2022-11-08T07:23:49.579Z,9.30
2022-11-08T07:26:16.212Z,9.50
2022-11-08T07:28:42.746Z,9.50
2022-11-08T07:31:10.491Z,9.50
2022-11-08T07:33:37.077Z,9.60
2022-11-08T07:36:03.796Z,9.60
2022-11-08T07:38:30.373Z,9.60
2022-11-08T07:40:58.086Z,9.60
2022-11-08T07:43:25.251Z,9.60
2022-11-08T07:45:58.586Z,9.70
2022-11-08T07:48:25.236Z,9.80
2022-11-08T07:50:51.848Z,9.90
2022-11-08T07:53:18.618Z,10.10
2022-11-08T07:55:45.618Z,10.30
2022-11-08T07:58:12.222Z,10.20
2022-11-08T08:00:39.615Z,10.20
2022-11-08T08:03:06.773Z,10.20
2022-11-08T08:05:34.162Z,10.10
2022-11-08T08:08:01.902Z,10.10
2022-11-08T08:10:28.465Z,10.20
2022-11-08T08:12:55.380Z,10.30
2022-11-08T08:15:21.988Z,10.40
2022-11-08T08:17:48.532Z,10.50
2022-11-08T08:20:15.157Z,10.70
2022-11-08T08:22:48.448Z,10.90
2022-11-08T08:25:15.131Z,11.00
2022-11-08T08:27:46.096Z,11.20
2022-11-08T08:30:12.691Z,11.30
2022-11-08T08:32:39.232Z,11.60
2022-11-08T08:35:05.881Z,11.90
2022-11-08T08:37:32.429Z,12.10
2022-11-08T08:39:59.114Z,12.20
2022-11-08T08:42:25.667Z,12.40
2022-11-08T08:44:52.230Z,12.30
2022-11-08T08:47:18.830Z,12.30
2022-11-08T08:49:45.379Z,12.30
2022-11-08T08:52:11.916Z,12.40
2022-11-08T08:54:38.474Z,12.50
2022-11-08T08:57:05.046Z,12.50
2022-11-08T09:02:18.477Z,12.50
2022-11-08T09:04:45.019Z,12.60
2022-11-08T09:07:11.600Z,12.70
2022-11-08T09:09:38.255Z,12.80
2022-11-08T09:12:06.339Z,12.90
2022-11-08T09:14:35.586Z,13.00
2022-11-08T09:17:02.107Z,13.10
2022-11-08T09:19:28.651Z,13.20
2022-11-08T09:21:55.235Z,13.30
2022-11-08T09:24:21.815Z,13.50
2022-11-08T09:26:48.372Z,13.50
2022-11-08T09:29:15.030Z,13.60
2022-11-08T09:31:41.615Z,13.70
2022-11-08T09:34:08.235Z,13.70
2022-11-08T09:36:34.780Z,14.00
2022-11-08T09:39:01.359Z,14.20
2022-11-08T09:41:27.855Z,14.40
2022-11-08T09:44:13.240Z,14.40
2022-11-08T09:46:50.670Z,14.50
2022-11-08T09:49:18.792Z,14.70
2022-11-08T09:51:45.574Z,14.70
2022-11-08T09:54:19.496Z,14.60
2022-11-08T09:56:46.334Z,14.50
2022-11-08T09:59:27.908Z,14.60
2022-11-08T10:01:54.524Z,14.70
2022-11-08T10:04:25.400Z,14.70
2022-11-08T10:07:10.821Z,14.70
2022-11-08T10:09:48.729Z,14.80
2022-11-08T10:12:33.482Z,14.90
2022-11-08T10:15:18.391Z,15.00
2022-11-08T10:17:50.092Z,15.10
2022-11-08T10:20:29.792Z,15.00
2022-11-08T10:22:59.934Z,15.00
2022-11-08T10:25:42.486Z,15.00
2022-11-08T10:28:10.018Z,15.10
2022-11-08T10:30:36.892Z,15.30
2022-11-08T10:33:08.964Z,15.40
2022-11-08T10:35:41.346Z,15.30
2022-11-08T10:38:18.455Z,15.40
2022-11-08T10:40:59.223Z,15.60
2022-11-08T10:43:40.691Z,15.60
2022-11-08T10:46:11.700Z,15.60
2022-11-08T10:48:40.135Z,15.60
2022-11-08T10:51:07.523Z,15.70
2022-11-08T10:53:34.961Z,15.70
2022-11-08T10:56:02.133Z,15.80
2022-11-08T10:58:33.023Z,15.60
2022-11-08T11:01:00.775Z,15.60
2022-11-08T11:03:30.319Z,15.50
2022-11-08T11:06:06.739Z,15.60
2022-11-08T11:08:33.292Z,15.60
2022-11-08T11:11:21.262Z,15.70
2022-11-08T11:13:55.594Z,15.80
2022-11-08T11:16:22.136Z,16.00
2022-11-08T11:18:50.464Z,15.90
2022-11-08T11:21:17.623Z,15.90
2022-11-08T11:23:48.191Z,16.20
2022-11-08T11:26:28.645Z,16.10
2022-11-08T11:29:04.853Z,16.20
2022-11-08T11:31:38.283Z,16.10
2022-11-08T11:34:17.226Z,15.80
2022-11-08T11:36:47.967Z,15.60
2022-11-08T11:39:34.767Z,15.60
2022-11-08T11:42:17.857Z,15.60
2022-11-08T11:45:08.095Z,15.60
2022-11-08T11:47:50.343Z,15.60
2022-11-08T11:50:19.943Z,15.90
2022-11-08T11:52:46.487Z,16.20
2022-11-08T11:55:14.323Z,16.30
2022-11-08T11:57:40.810Z,16.40
2022-11-08T12:00:08.207Z,16.50
2022-11-08T12:02:41.538Z,16.50
2022-11-08T12:05:13.162Z,16.70
2022-11-08T12:07:47.022Z,16.70
2022-11-08T12:10:20.267Z,16.80
2022-11-08T12:12:46.779Z,16.80
2022-11-08T12:15:13.447Z,16.80
2022-11-08T12:17:58.351Z,16.80
2022-11-08T12:20:27.757Z,16.70
2022-11-08T12:23:03.367Z,16.70
2022-11-08T12:25:33.000Z,16.70
2022-11-08T12:28:15.028Z,16.70
2022-11-08T12:30:56.577Z,16.70
2022-11-08T12:33:23.134Z,16.60
2022-11-08T12:35:59.065Z,16.50
2022-11-08T12:38:31.409Z,16.50
2022-11-08T12:41:05.914Z,16.40
2022-11-08T12:43:41.311Z,16.50
2022-11-08T12:46:12.928Z,16.60
2022-11-08T12:48:39.485Z,16.80
2022-11-08T12:51:12.612Z,16.90
2022-11-08T12:53:42.225Z,17.00
2022-11-08T12:56:12.286Z,16.90
2022-11-08T12:58:38.804Z,16.90
2022-11-08T13:01:06.260Z,16.80
2022-11-08T13:03:51.213Z,16.80
2022-11-08T13:06:19.271Z,16.70
2022-11-08T13:08:48.884Z,16.50
2022-11-08T13:11:23.728Z,16.40
2022-11-08T13:13:51.252Z,16.40
2022-11-08T13:16:18.835Z,16.40
2022-11-08T13:18:46.527Z,16.40
2022-11-08T13:21:28.285Z,16.40
2022-11-08T13:23:54.977Z,16.30
2022-11-08T13:26:22.038Z,16.20
2022-11-08T13:28:48.786Z,16.10
2022-11-08T13:31:29.300Z,16.10
2022-11-08T13:33:58.142Z,16.00
2022-11-08T13:36:36.928Z,16.00
2022-11-08T13:39:14.369Z,15.90
2022-11-08T13:42:07.365Z,16.00
2022-11-08T13:44:52.469Z,15.90
2022-11-08T13:47:34.399Z,15.90
2022-11-08T13:50:19.857Z,15.80
2022-11-08T13:52:46.907Z,15.80
2022-11-08T13:55:43.163Z,15.80
2022-11-08T13:58:29.052Z,15.70
2022-11-08T14:00:55.647Z,15.70
2022-11-08T14:03:36.550Z,15.70
2022-11-08T14:06:09.720Z,15.60
2022-11-08T14:08:45.645Z,15.60
2022-11-08T14:11:29.298Z,15.50
2022-11-08T14:14:03.464Z,15.50
2022-11-08T14:16:31.533Z,15.40
2022-11-08T14:19:18.568Z,15.40
2022-11-08T14:21:52.220Z,15.30
2022-11-08T14:24:23.365Z,15.10
2022-11-08T14:26:50.006Z,15.10
2022-11-08T14:29:17.740Z,15.10
2022-11-08T14:31:44.287Z,15.00
2022-11-08T14:34:30.304Z,15.00
2022-11-08T14:36:56.998Z,14.90
2022-11-08T14:39:28.826Z,14.80
2022-11-08T14:41:55.685Z,14.80
2022-11-08T14:44:22.255Z,14.80
2022-11-08T14:46:48.910Z,14.80
2022-11-08T14:49:18.499Z,14.70
2022-11-08T14:51:45.311Z,14.70
2022-11-08T14:54:21.508Z,14.60
2022-11-08T14:56:48.153Z,14.60
2022-11-08T14:59:14.717Z,14.60
2022-11-08T15:01:41.549Z,14.60
2022-11-08T15:04:15.573Z,14.50
2022-11-08T15:06:43.108Z,14.50
2022-11-08T15:09:16.947Z,14.40
2022-11-08T15:11:43.488Z,14.40
2022-11-08T15:14:10.917Z,14.30
2022-11-08T15:16:38.080Z,14.30
2022-11-08T15:19:19.973Z,14.30
2022-11-08T15:21:47.410Z,14.30
2022-11-08T15:24:14.494Z,14.30
2022-11-08T15:26:41.028Z,14.20
2022-11-08T15:29:08.699Z,14.20
2022-11-08T15:31:36.254Z,14.20
2022-11-08T15:34:02.833Z,14.10
2022-11-08T15:36:35.799Z,14.10
2022-11-08T15:39:03.952Z,14.00
2022-11-08T15:41:33.641Z,14.00
2022-11-08T15:44:12.287Z,13.90
2022-11-08T15:46:38.861Z,13.90
2022-11-08T15:49:19.630Z,13.90
2022-11-08T15:51:49.831Z,13.80
2022-11-08T15:54:16.860Z,13.80
2022-11-08T15:56:43.575Z,13.80
2022-11-08T15:59:18.583Z,13.80
2022-11-08T16:01:57.721Z,13.80
2022-11-08T16:04:24.311Z,13.70
2022-11-08T16:06:50.963Z,13.70
2022-11-08T16:09:17.597Z,13.70
2022-11-08T16:11:45.291Z,13.70
2022-11-08T16:14:16.039Z,13.70
2022-11-08T16:16:42.609Z,13.60
2022-11-08T16:19:11.761Z,13.70
2022-11-08T16:21:38.325Z,13.60
2022-11-08T16:24:04.931Z,13.70
2022-11-08T16:26:31.484Z,13.70
2022-11-08T16:28:58.252Z,13.60
2022-11-08T16:31:24.784Z,13.60
2022-11-08T16:33:53.915Z,13.60
2022-11-08T16:36:21.075Z,13.60
2022-11-08T16:38:51.110Z,13.60
2022-11-08T16:41:17.912Z,13.50
2022-11-08T16:43:44.492Z,13.50
2022-11-08T16:46:11.043Z,13.50
2022-11-08T16:48:38.016Z,13.40
2022-11-08T16:51:05.595Z,13.40
2022-11-08T16:53:35.064Z,13.40
2022-11-08T16:56:01.653Z,13.40
2022-11-08T16:58:28.310Z,13.40
2022-11-08T17:00:55.640Z,13.40
2022-11-08T17:03:23.182Z,13.40
2022-11-08T17:05:49.793Z,13.40
2022-11-08T17:08:17.115Z,13.40
2022-11-08T17:10:44.040Z,13.40
2022-11-08T17:13:14.069Z,13.40
2022-11-08T17:15:40.633Z,13.40
2022-11-08T17:18:07.167Z,13.40
2022-11-08T17:20:33.723Z,13.40
2022-11-08T17:23:00.300Z,13.40
2022-11-08T17:25:26.866Z,13.30
2022-11-08T17:27:53.435Z,13.30
2022-11-08T17:30:25.354Z,13.30
2022-11-08T17:32:52.043Z,13.30
2022-11-08T17:35:19.081Z,13.30
2022-11-08T17:37:45.615Z,13.30
2022-11-08T17:40:12.286Z,13.30
2022-11-08T17:42:41.582Z,13.20
2022-11-08T17:45:08.679Z,13.20
2022-11-08T17:47:35.340Z,13.10
2022-11-08T17:50:01.975Z,13.10
2022-11-08T17:52:28.504Z,13.10
2022-11-08T17:54:55.074Z,13.10
2022-11-08T17:57:21.629Z,12.90
2022-11-08T17:59:48.359Z,13.00
2022-11-08T18:02:15.007Z,13.00
2022-11-08T18:04:41.636Z,13.00
2022-11-08T18:07:08.341Z,13.00
2022-11-08T18:09:34.987Z,13.00
2022-11-08T18:12:01.671Z,13.00
2022-11-08T18:14:29.047Z,13.00
2022-11-08T18:16:55.893Z,13.00
2022-11-08T18:19:22.471Z,13.00
2022-11-08T18:21:49.043Z,13.00
2022-11-08T18:24:15.727Z,13.10
2022-11-08T18:26:42.452Z,13.00
2022-11-08T18:29:09.092Z,13.00
2022-11-08T18:31:36.817Z,13.00
2022-11-08T18:34:03.429Z,13.00
2022-11-08T18:36:30.941Z,13.00
2022-11-08T18:39:00.580Z,13.00
2022-11-08T18:41:31.035Z,13.00
2022-11-08T18:43:58.575Z,13.00
2022-11-08T18:46:25.776Z,13.00
2022-11-08T18:48:52.391Z,13.00
2022-11-08T18:51:20.123Z,13.00
2022-11-08T18:53:46.664Z,13.00
2022-11-08T18:56:13.275Z,12.90
2022-11-08T18:58:39.859Z,12.90
2022-11-08T19:01:06.575Z,13.00
2022-11-08T19:03:33.796Z,13.00
2022-11-08T19:06:00.370Z,12.90
2022-11-08T19:08:27.267Z,12.90
2022-11-08T19:10:57.382Z,13.00
2022-11-08T19:13:24.333Z,12.90
2022-11-08T19:16:00.638Z,13.00
2022-11-08T19:18:27.320Z,13.00
2022-11-08T19:20:54.777Z,13.00
2022-11-08T19:23:21.659Z,13.00
2022-11-08T19:25:57.848Z,13.00
2022-11-08T19:28:27.023Z,13.10
2022-11-08T19:30:55.695Z,13.10
2022-11-08T19:33:22.356Z,13.20
2022-11-08T19:35:49.002Z,13.20
2022-11-08T19:38:15.569Z,13.10
2022-11-08T19:40:42.172Z,13.10
2022-11-08T19:43:08.743Z,13.10
2022-11-08T19:45:35.315Z,13.10
2022-11-08T19:48:01.904Z,13.10
2022-11-08T19:50:28.717Z,13.10
2022-11-08T19:52:55.365Z,13.20
2022-11-08T19:55:21.919Z,13.10
2022-11-08T19:57:48.456Z,13.10
2022-11-08T20:00:15.652Z,13.10
2022-11-08T20:02:42.224Z,13.00
2022-11-08T20:05:09.564Z,13.00
2022-11-08T20:07:36.453Z,13.00
2022-11-08T20:10:03.455Z,13.00
2022-11-08T20:12:32.972Z,13.00
2022-11-08T20:14:59.539Z,13.10
2022-11-08T20:17:26.072Z,13.00
2022-11-08T20:19:52.906Z,13.00
2022-11-08T20:22:19.449Z,13.10
2022-11-08T20:24:46.292Z,13.10
2022-11-08T20:27:12.851Z,13.00
2022-11-08T20:29:39.399Z,13.00
2022-11-08T20:32:05.960Z,13.00
2022-11-08T20:34:32.501Z,13.00
2022-11-08T20:36:59.083Z,13.00
2022-11-08T20:39:25.619Z,13.00
2022-11-08T20:41:52.178Z,13.00
2022-11-08T20:44:20.098Z,13.00
2022-11-08T20:46:46.663Z,13.00
2022-11-08T20:49:13.212Z,12.90
2022-11-08T20:51:39.761Z,12.90
2022-11-08T20:54:06.299Z,12.90
2022-11-08T20:56:32.892Z,12.90
2022-11-08T20:58:59.426Z,12.90
2022-11-08T21:01:27.764Z,12.90
2022-11-08T21:03:55.137Z,12.90
2022-11-08T21:06:22.584Z,12.90
2022-11-08T21:09:26.130Z,12.90
2022-11-08T21:11:35.894Z,12.80
2022-11-08T21:14:03.004Z,12.80
2022-11-08T21:16:31.978Z,12.80
2022-11-08T21:19:01.865Z,12.80
2022-11-08T21:21:28.447Z,12.70
2022-11-08T21:23:54.994Z,12.70
2022-11-08T21:26:21.576Z,12.70
2022-11-08T21:28:48.162Z,12.70
2022-11-08T21:31:14.707Z,12.80
2022-11-08T21:33:41.297Z,12.70
2022-11-08T21:36:08.046Z,12.80
2022-11-08T21:38:35.361Z,12.90
2022-11-08T21:41:03.214Z,12.90
2022-11-08T21:43:29.809Z,12.90
2022-11-08T21:45:56.362Z,12.80
2022-11-08T21:48:23.382Z,12.80
2022-11-08T21:50:50.000Z,12.80
2022-11-08T21:53:16.538Z,12.80
2022-11-08T21:55:43.495Z,12.80
2022-11-08T21:58:10.070Z,12.90
2022-11-08T22:00:36.700Z,12.90
2022-11-08T22:03:03.250Z,12.90
2022-11-08T22:05:29.832Z,12.90
2022-11-08T22:07:56.424Z,12.90
2022-11-08T22:10:22.975Z,12.90
2022-11-08T22:12:49.507Z,13.00
2022-11-08T22:15:16.061Z,12.90
2022-11-08T22:18:07.558Z,13.00
2022-11-08T22:20:29.135Z,13.00
2022-11-08T22:22:55.667Z,13.10
2022-11-08T22:25:22.229Z,13.10
2022-11-08T22:27:48.776Z,13.10
2022-11-08T22:30:16.836Z,13.20
2022-11-08T22:32:43.574Z,13.20
2022-11-08T22:35:10.120Z,13.20
2022-11-08T22:37:36.751Z,13.20
2022-11-08T22:40:03.413Z,13.30
2022-11-08T22:42:29.972Z,13.30
2022-11-08T22:44:56.512Z,13.30
2022-11-08T22:47:23.063Z,13.40
2022-11-08T22:49:49.677Z,13.40
2022-11-08T22:52:16.277Z,13.40
2022-11-08T22:54:42.922Z,13.50
2022-11-08T22:57:09.471Z,13.50
2022-11-08T22:59:36.013Z,13.50
2022-11-08T23:02:02.559Z,13.50
2022-11-08T23:04:29.107Z,13.60
2022-11-08T23:06:55.699Z,13.60
2022-11-08T23:09:22.467Z,13.60
2022-11-08T23:12:07.958Z,13.60
2022-11-08T23:14:53.391Z,13.50
2022-11-08T23:17:19.943Z,13.50
2022-11-08T23:20:05.243Z,13.60
2022-11-08T23:22:50.487Z,13.50
2022-11-08T23:25:17.046Z,13.50
2022-11-08T23:28:02.316Z,13.50
2022-11-08T23:30:47.360Z,13.50
2022-11-08T23:33:13.959Z,13.50
2022-11-08T23:36:00.500Z,13.50
2022-11-08T23:38:27.058Z,13.50
2022-11-08T23:41:12.497Z,13.50
2022-11-08T23:43:57.427Z,13.50
2022-11-08T23:46:24.144Z,13.50
2022-11-08T23:48:50.722Z,13.40
2022-11-08T23:51:17.288Z,13.40
2022-11-08T23:53:44.007Z,13.40
2022-11-08T23:56:10.569Z,13.40
2022-11-08T23:58:37.099Z,13.40
